sensor_id;sensor_type;location;lat;lon;timestamp;P1;durP1;ratioP1;P2;durP2;ratioP2
27632;SDS011;15046;50.930;13.334;2022-10-31T00:01:16;10.88;;;4.30;;
27632;SDS011;15046;50.930;13.334;2022-10-31T00:03:47;11.65;;;5.45;;
27632;SDS011;15046;50.930;13.334;2022-10-31T00:06:13;11.30;;;3.80;;
27632;SDS011;15046;50.930;13.334;2022-10-31T00:08:39;7.82;;;3.75;;
27632;SDS011;15046;50.930;13.334;2022-10-31T00:11:08;7.53;;;3.53;;
27632;SDS011;15046;50.930;13.334;2022-10-31T00:13:34;10.02;;;4.20;;
27632;SDS011;15046;50.930;13.334;2022-10-31T00:16:00;8.63;;;3.47;;
27632;SDS011;15046;50.930;13.334;2022-10-31T00:18:26;7.72;;;2.58;;
27632;SDS011;15046;50.930;13.334;2022-10-31T00:20:58;5.30;;;2.78;;
27632;SDS011;15046;50.930;13.334;2022-10-31T00:23:28;6.28;;;3.03;;
27632;SDS011;15046;50.930;13.334;2022-10-31T00:25:54;6.05;;;2.08;;
27632;SDS011;15046;50.930;13.334;2022-10-31T00:28:26;4.95;;;1.90;;
27632;SDS011;15046;50.930;13.334;2022-10-31T00:30:52;5.10;;;2.95;;
27632;SDS011;15046;50.930;13.334;2022-10-31T00:33:18;3.50;;;1.58;;
27632;SDS011;15046;50.930;13.334;2022-10-31T00:35:48;5.93;;;1.90;;
27632;SDS011;15046;50.930;13.334;2022-10-31T00:38:15;6.65;;;2.20;;
27632;SDS011;15046;50.930;13.334;2022-10-31T00:40:41;5.78;;;1.95;;
27632;SDS011;15046;50.930;13.334;2022-10-31T00:43:06;3.53;;;1.88;;
27632;SDS011;15046;50.930;13.334;2022-10-31T00:45:32;6.60;;;1.88;;
27632;SDS011;15046;50.930;13.334;2022-10-31T00:47:58;5.43;;;2.38;;
27632;SDS011;15046;50.930;13.334;2022-10-31T00:50:24;6.63;;;2.05;;
27632;SDS011;15046;50.930;13.334;2022-10-31T00:52:49;7.57;;;2.45;;
27632;SDS011;15046;50.930;13.334;2022-10-31T00:55:15;6.78;;;2.33;;
27632;SDS011;15046;50.930;13.334;2022-10-31T00:57:41;5.50;;;2.15;;
27632;SDS011;15046;50.930;13.334;2022-10-31T01:00:07;6.57;;;2.65;;
27632;SDS011;15046;50.930;13.334;2022-10-31T01:02:33;4.63;;;1.95;;
27632;SDS011;15046;50.930;13.334;2022-10-31T01:04:59;4.00;;;1.60;;
27632;SDS011;15046;50.930;13.334;2022-10-31T01:07:25;5.43;;;2.50;;
27632;SDS011;15046;50.930;13.334;2022-10-31T01:09:51;5.15;;;2.10;;
27632;SDS011;15046;50.930;13.334;2022-10-31T01:12:16;7.18;;;2.75;;
27632;SDS011;15046;50.930;13.334;2022-10-31T01:14:43;8.50;;;1.98;;
27632;SDS011;15046;50.930;13.334;2022-10-31T01:17:10;4.88;;;1.80;;
27632;SDS011;15046;50.930;13.334;2022-10-31T01:19:36;7.90;;;2.63;;
27632;SDS011;15046;50.930;13.334;2022-10-31T01:22:01;7.97;;;1.73;;
27632;SDS011;15046;50.930;13.334;2022-10-31T01:24:27;7.60;;;1.75;;
27632;SDS011;15046;50.930;13.334;2022-10-31T01:26:53;6.63;;;2.03;;
27632;SDS011;15046;50.930;13.334;2022-10-31T01:29:19;3.97;;;1.67;;
27632;SDS011;15046;50.930;13.334;2022-10-31T01:31:45;4.50;;;1.85;;
27632;SDS011;15046;50.930;13.334;2022-10-31T01:34:13;6.43;;;2.45;;
27632;SDS011;15046;50.930;13.334;2022-10-31T01:39:09;7.65;;;2.17;;
27632;SDS011;15046;50.930;13.334;2022-10-31T01:41:38;7.75;;;2.58;;
27632;SDS011;15046;50.930;13.334;2022-10-31T01:49:14;6.72;;;2.28;;
27632;SDS011;15046;50.930;13.334;2022-10-31T01:51:47;5.70;;;1.85;;
27632;SDS011;15046;50.930;13.334;2022-10-31T01:54:16;3.17;;;1.83;;
27632;SDS011;15046;50.930;13.334;2022-10-31T01:56:46;5.50;;;2.10;;
27632;SDS011;15046;50.930;13.334;2022-10-31T01:59:15;4.78;;;1.85;;
27632;SDS011;15046;50.930;13.334;2022-10-31T02:01:44;16.48;;;2.75;;
27632;SDS011;15046;50.930;13.334;2022-10-31T02:04:11;5.82;;;2.13;;
27632;SDS011;15046;50.930;13.334;2022-10-31T02:06:38;5.68;;;2.42;;
27632;SDS011;15046;50.930;13.334;2022-10-31T02:09:10;7.13;;;2.67;;
27632;SDS011;15046;50.930;13.334;2022-10-31T02:11:38;5.03;;;2.15;;
27632;SDS011;15046;50.930;13.334;2022-10-31T02:14:05;6.15;;;1.98;;
27632;SDS011;15046;50.930;13.334;2022-10-31T02:16:31;5.30;;;2.38;;
27632;SDS011;15046;50.930;13.334;2022-10-31T02:18:56;8.32;;;2.22;;
27632;SDS011;15046;50.930;13.334;2022-10-31T02:26:44;6.28;;;2.72;;
27632;SDS011;15046;50.930;13.334;2022-10-31T02:30:00;10.73;;;3.00;;
27632;SDS011;15046;50.930;13.334;2022-10-31T02:32:03;5.43;;;2.63;;
27632;SDS011;15046;50.930;13.334;2022-10-31T02:42:51;8.90;;;3.33;;
27632;SDS011;15046;50.930;13.334;2022-10-31T02:45:28;6.40;;;2.90;;
27632;SDS011;15046;50.930;13.334;2022-10-31T02:47:55;5.30;;;2.55;;
27632;SDS011;15046;50.930;13.334;2022-10-31T02:50:28;8.20;;;2.55;;
27632;SDS011;15046;50.930;13.334;2022-10-31T02:53:00;7.18;;;2.08;;
27632;SDS011;15046;50.930;13.334;2022-10-31T02:57:54;5.18;;;2.70;;
27632;SDS011;15046;50.930;13.334;2022-10-31T03:03:30;7.68;;;3.20;;
27632;SDS011;15046;50.930;13.334;2022-10-31T03:09:13;6.60;;;3.08;;
27632;SDS011;15046;50.930;13.334;2022-10-31T03:14:54;7.47;;;2.95;;
27632;SDS011;15046;50.930;13.334;2022-10-31T03:17:49;7.32;;;2.70;;
27632;SDS011;15046;50.930;13.334;2022-10-31T03:20:23;6.55;;;2.72;;
27632;SDS011;15046;50.930;13.334;2022-10-31T03:23:13;6.30;;;2.72;;
27632;SDS011;15046;50.930;13.334;2022-10-31T03:25:41;6.80;;;3.35;;
27632;SDS011;15046;50.930;13.334;2022-10-31T03:28:08;6.88;;;3.08;;
27632;SDS011;15046;50.930;13.334;2022-10-31T03:30:38;6.63;;;2.53;;
27632;SDS011;15046;50.930;13.334;2022-10-31T03:33:07;7.57;;;2.78;;
27632;SDS011;15046;50.930;13.334;2022-10-31T03:35:36;8.63;;;3.00;;
27632;SDS011;15046;50.930;13.334;2022-10-31T03:38:06;11.43;;;3.15;;
27632;SDS011;15046;50.930;13.334;2022-10-31T03:40:33;7.15;;;2.63;;
27632;SDS011;15046;50.930;13.334;2022-10-31T03:43:03;7.30;;;2.78;;
27632;SDS011;15046;50.930;13.334;2022-10-31T03:45:36;6.00;;;2.58;;
27632;SDS011;15046;50.930;13.334;2022-10-31T03:48:07;8.38;;;2.35;;
27632;SDS011;15046;50.930;13.334;2022-10-31T03:50:57;9.70;;;2.78;;
27632;SDS011;15046;50.930;13.334;2022-10-31T03:56:02;7.93;;;3.15;;
27632;SDS011;15046;50.930;13.334;2022-10-31T03:58:48;7.05;;;2.80;;
27632;SDS011;15046;50.930;13.334;2022-10-31T04:01:30;7.43;;;3.03;;
27632;SDS011;15046;50.930;13.334;2022-10-31T04:03:59;8.23;;;2.85;;
27632;SDS011;15046;50.930;13.334;2022-10-31T04:06:26;5.57;;;2.78;;
27632;SDS011;15046;50.930;13.334;2022-10-31T04:08:56;6.53;;;2.83;;
27632;SDS011;15046;50.930;13.334;2022-10-31T04:11:27;5.18;;;2.55;;
27632;SDS011;15046;50.930;13.334;2022-10-31T04:13:56;6.82;;;2.70;;
27632;SDS011;15046;50.930;13.334;2022-10-31T04:16:24;6.10;;;2.72;;
27632;SDS011;15046;50.930;13.334;2022-10-31T04:18:51;5.35;;;2.35;;
27632;SDS011;15046;50.930;13.334;2022-10-31T04:21:17;8.32;;;2.70;;
27632;SDS011;15046;50.930;13.334;2022-10-31T04:23:43;8.50;;;2.60;;
27632;SDS011;15046;50.930;13.334;2022-10-31T04:26:11;6.95;;;2.67;;
27632;SDS011;15046;50.930;13.334;2022-10-31T04:28:38;8.68;;;2.65;;
27632;SDS011;15046;50.930;13.334;2022-10-31T04:31:04;7.50;;;2.58;;
27632;SDS011;15046;50.930;13.334;2022-10-31T04:33:30;7.15;;;2.83;;
27632;SDS011;15046;50.930;13.334;2022-10-31T04:35:55;6.53;;;2.25;;
27632;SDS011;15046;50.930;13.334;2022-10-31T04:38:21;8.05;;;3.00;;
27632;SDS011;15046;50.930;13.334;2022-10-31T04:40:47;5.93;;;3.20;;
27632;SDS011;15046;50.930;13.334;2022-10-31T04:43:13;7.20;;;2.40;;
27632;SDS011;15046;50.930;13.334;2022-10-31T04:45:38;4.93;;;2.70;;
27632;SDS011;15046;50.930;13.334;2022-10-31T04:48:04;6.53;;;3.00;;
27632;SDS011;15046;50.930;13.334;2022-10-31T04:50:30;5.95;;;2.58;;
27632;SDS011;15046;50.930;13.334;2022-10-31T04:52:56;7.15;;;2.67;;
27632;SDS011;15046;50.930;13.334;2022-10-31T04:55:21;18.73;;;3.90;;
27632;SDS011;15046;50.930;13.334;2022-10-31T04:57:48;7.63;;;3.05;;
27632;SDS011;15046;50.930;13.334;2022-10-31T05:00:15;7.72;;;2.45;;
27632;SDS011;15046;50.930;13.334;2022-10-31T05:02:46;9.57;;;3.40;;
27632;SDS011;15046;50.930;13.334;2022-10-31T05:05:17;7.50;;;3.15;;
27632;SDS011;15046;50.930;13.334;2022-10-31T05:07:44;8.68;;;3.47;;
27632;SDS011;15046;50.930;13.334;2022-10-31T05:10:12;6.32;;;2.75;;
27632;SDS011;15046;50.930;13.334;2022-10-31T05:12:50;7.68;;;2.50;;
27632;SDS011;15046;50.930;13.334;2022-10-31T05:15:18;6.07;;;2.58;;
27632;SDS011;15046;50.930;13.334;2022-10-31T05:17:46;5.45;;;2.40;;
27632;SDS011;15046;50.930;13.334;2022-10-31T05:20:12;7.15;;;2.78;;
27632;SDS011;15046;50.930;13.334;2022-10-31T05:22:42;5.68;;;2.20;;
27632;SDS011;15046;50.930;13.334;2022-10-31T05:25:09;6.60;;;2.80;;
27632;SDS011;15046;50.930;13.334;2022-10-31T05:27:38;8.45;;;2.70;;
27632;SDS011;15046;50.930;13.334;2022-10-31T05:30:06;5.03;;;2.42;;
27632;SDS011;15046;50.930;13.334;2022-10-31T05:32:40;5.28;;;2.22;;
27632;SDS011;15046;50.930;13.334;2022-10-31T05:35:09;5.70;;;2.55;;
27632;SDS011;15046;50.930;13.334;2022-10-31T05:37:37;9.10;;;2.80;;
27632;SDS011;15046;50.930;13.334;2022-10-31T05:40:04;8.50;;;3.00;;
27632;SDS011;15046;50.930;13.334;2022-10-31T05:42:32;6.32;;;2.70;;
27632;SDS011;15046;50.930;13.334;2022-10-31T05:44:58;6.50;;;3.13;;
27632;SDS011;15046;50.930;13.334;2022-10-31T05:47:24;9.65;;;2.80;;
27632;SDS011;15046;50.930;13.334;2022-10-31T05:49:50;5.05;;;2.35;;
27632;SDS011;15046;50.930;13.334;2022-10-31T05:52:16;9.38;;;3.58;;
27632;SDS011;15046;50.930;13.334;2022-10-31T05:54:42;9.75;;;3.30;;
27632;SDS011;15046;50.930;13.334;2022-10-31T05:57:08;9.43;;;4.40;;
27632;SDS011;15046;50.930;13.334;2022-10-31T05:59:33;7.85;;;3.10;;
27632;SDS011;15046;50.930;13.334;2022-10-31T06:01:59;7.45;;;2.50;;
27632;SDS011;15046;50.930;13.334;2022-10-31T06:04:25;6.53;;;2.92;;
27632;SDS011;15046;50.930;13.334;2022-10-31T06:06:51;6.22;;;2.97;;
27632;SDS011;15046;50.930;13.334;2022-10-31T06:09:17;5.40;;;2.53;;
27632;SDS011;15046;50.930;13.334;2022-10-31T06:11:42;6.18;;;2.35;;
27632;SDS011;15046;50.930;13.334;2022-10-31T06:14:08;9.07;;;3.08;;
27632;SDS011;15046;50.930;13.334;2022-10-31T06:16:34;7.18;;;2.90;;
27632;SDS011;15046;50.930;13.334;2022-10-31T06:19:00;7.72;;;2.90;;
27632;SDS011;15046;50.930;13.334;2022-10-31T06:21:26;7.57;;;2.63;;
27632;SDS011;15046;50.930;13.334;2022-10-31T06:23:52;8.20;;;3.20;;
27632;SDS011;15046;50.930;13.334;2022-10-31T06:26:18;8.98;;;3.25;;
27632;SDS011;15046;50.930;13.334;2022-10-31T06:28:43;5.75;;;2.72;;
27632;SDS011;15046;50.930;13.334;2022-10-31T06:31:09;7.20;;;3.45;;
27632;SDS011;15046;50.930;13.334;2022-10-31T06:33:35;12.00;;;4.68;;
27632;SDS011;15046;50.930;13.334;2022-10-31T06:36:01;9.20;;;4.63;;
27632;SDS011;15046;50.930;13.334;2022-10-31T06:38:27;8.48;;;3.95;;
27632;SDS011;15046;50.930;13.334;2022-10-31T06:40:54;11.45;;;4.25;;
27632;SDS011;15046;50.930;13.334;2022-10-31T06:43:20;14.20;;;3.97;;
27632;SDS011;15046;50.930;13.334;2022-10-31T06:45:49;12.80;;;4.43;;
27632;SDS011;15046;50.930;13.334;2022-10-31T06:48:18;10.15;;;4.90;;
27632;SDS011;15046;50.930;13.334;2022-10-31T06:50:44;9.73;;;4.00;;
27632;SDS011;15046;50.930;13.334;2022-10-31T06:53:10;9.32;;;3.47;;
27632;SDS011;15046;50.930;13.334;2022-10-31T06:55:36;10.95;;;4.05;;
27632;SDS011;15046;50.930;13.334;2022-10-31T06:58:02;7.80;;;3.45;;
27632;SDS011;15046;50.930;13.334;2022-10-31T07:00:28;8.40;;;3.70;;
27632;SDS011;15046;50.930;13.334;2022-10-31T07:02:59;6.78;;;2.90;;
27632;SDS011;15046;50.930;13.334;2022-10-31T07:05:30;8.27;;;3.00;;
27632;SDS011;15046;50.930;13.334;2022-10-31T07:07:58;8.10;;;3.85;;
27632;SDS011;15046;50.930;13.334;2022-10-31T07:10:27;9.70;;;3.33;;
27632;SDS011;15046;50.930;13.334;2022-10-31T07:12:54;9.57;;;3.28;;
27632;SDS011;15046;50.930;13.334;2022-10-31T07:15:21;8.65;;;4.15;;
27632;SDS011;15046;50.930;13.334;2022-10-31T07:17:48;6.70;;;3.33;;
27632;SDS011;15046;50.930;13.334;2022-10-31T07:20:14;6.75;;;3.13;;
27632;SDS011;15046;50.930;13.334;2022-10-31T07:22:40;9.35;;;3.75;;
27632;SDS011;15046;50.930;13.334;2022-10-31T07:25:06;8.10;;;2.92;;
27632;SDS011;15046;50.930;13.334;2022-10-31T07:27:36;10.20;;;3.67;;
27632;SDS011;15046;50.930;13.334;2022-10-31T07:30:06;15.82;;;5.53;;
27632;SDS011;15046;50.930;13.334;2022-10-31T07:32:37;9.40;;;5.38;;
27632;SDS011;15046;50.930;13.334;2022-10-31T07:35:05;8.70;;;4.85;;
27632;SDS011;15046;50.930;13.334;2022-10-31T07:37:35;10.98;;;4.78;;
27632;SDS011;15046;50.930;13.334;2022-10-31T07:40:02;10.93;;;4.85;;
27632;SDS011;15046;50.930;13.334;2022-10-31T07:42:29;11.85;;;5.20;;
27632;SDS011;15046;50.930;13.334;2022-10-31T07:45:04;11.15;;;4.43;;
27632;SDS011;15046;50.930;13.334;2022-10-31T07:47:40;11.98;;;4.90;;
27632;SDS011;15046;50.930;13.334;2022-10-31T07:50:06;8.60;;;4.05;;
27632;SDS011;15046;50.930;13.334;2022-10-31T07:52:33;8.68;;;4.60;;
27632;SDS011;15046;50.930;13.334;2022-10-31T07:54:59;7.32;;;3.40;;
27632;SDS011;15046;50.930;13.334;2022-10-31T07:57:25;8.07;;;4.38;;
27632;SDS011;15046;50.930;13.334;2022-10-31T07:59:51;6.35;;;3.42;;
27632;SDS011;15046;50.930;13.334;2022-10-31T08:02:17;7.88;;;3.20;;
27632;SDS011;15046;50.930;13.334;2022-10-31T08:04:43;9.95;;;3.35;;
27632;SDS011;15046;50.930;13.334;2022-10-31T08:07:08;6.93;;;3.13;;
27632;SDS011;15046;50.930;13.334;2022-10-31T08:09:34;6.03;;;2.50;;
27632;SDS011;15046;50.930;13.334;2022-10-31T08:12:00;9.38;;;3.00;;
27632;SDS011;15046;50.930;13.334;2022-10-31T08:14:26;7.95;;;2.60;;
27632;SDS011;15046;50.930;13.334;2022-10-31T08:16:55;10.35;;;3.50;;
27632;SDS011;15046;50.930;13.334;2022-10-31T08:19:21;5.60;;;2.45;;
27632;SDS011;15046;50.930;13.334;2022-10-31T08:21:50;7.20;;;2.78;;
27632;SDS011;15046;50.930;13.334;2022-10-31T08:24:16;6.95;;;2.47;;
27632;SDS011;15046;50.930;13.334;2022-10-31T08:26:43;5.22;;;2.83;;
27632;SDS011;15046;50.930;13.334;2022-10-31T08:29:09;10.88;;;4.13;;
27632;SDS011;15046;50.930;13.334;2022-10-31T08:31:34;6.63;;;3.15;;
27632;SDS011;15046;50.930;13.334;2022-10-31T08:34:00;9.40;;;2.67;;
27632;SDS011;15046;50.930;13.334;2022-10-31T08:36:26;8.40;;;3.03;;
27632;SDS011;15046;50.930;13.334;2022-10-31T08:38:53;9.30;;;2.97;;
27632;SDS011;15046;50.930;13.334;2022-10-31T08:41:19;7.40;;;3.10;;
27632;SDS011;15046;50.930;13.334;2022-10-31T08:43:45;9.30;;;2.90;;
27632;SDS011;15046;50.930;13.334;2022-10-31T08:46:11;7.43;;;2.58;;
27632;SDS011;15046;50.930;13.334;2022-10-31T08:48:38;6.82;;;3.35;;
27632;SDS011;15046;50.930;13.334;2022-10-31T08:51:04;8.45;;;3.58;;
27632;SDS011;15046;50.930;13.334;2022-10-31T08:53:30;10.77;;;3.20;;
27632;SDS011;15046;50.930;13.334;2022-10-31T08:55:56;7.85;;;3.35;;
27632;SDS011;15046;50.930;13.334;2022-10-31T08:58:23;9.75;;;3.30;;
27632;SDS011;15046;50.930;13.334;2022-10-31T09:00:50;11.40;;;3.92;;
27632;SDS011;15046;50.930;13.334;2022-10-31T09:03:21;8.63;;;3.40;;
27632;SDS011;15046;50.930;13.334;2022-10-31T09:05:48;9.85;;;3.22;;
27632;SDS011;15046;50.930;13.334;2022-10-31T09:08:14;5.95;;;2.65;;
27632;SDS011;15046;50.930;13.334;2022-10-31T09:10:41;8.10;;;3.38;;
27632;SDS011;15046;50.930;13.334;2022-10-31T09:13:11;8.90;;;3.72;;
27632;SDS011;15046;50.930;13.334;2022-10-31T09:15:39;8.82;;;3.63;;
27632;SDS011;15046;50.930;13.334;2022-10-31T09:18:08;11.50;;;3.47;;
27632;SDS011;15046;50.930;13.334;2022-10-31T09:20:35;7.97;;;3.20;;
27632;SDS011;15046;50.930;13.334;2022-10-31T09:23:03;8.02;;;2.92;;
27632;SDS011;15046;50.930;13.334;2022-10-31T09:25:30;12.07;;;3.38;;
27632;SDS011;15046;50.930;13.334;2022-10-31T09:27:57;7.18;;;2.65;;
27632;SDS011;15046;50.930;13.334;2022-10-31T09:30:25;11.55;;;3.50;;
27632;SDS011;15046;50.930;13.334;2022-10-31T09:33:02;11.93;;;4.03;;
27632;SDS011;15046;50.930;13.334;2022-10-31T09:35:32;8.10;;;3.58;;
27632;SDS011;15046;50.930;13.334;2022-10-31T09:38:00;7.63;;;4.05;;
27632;SDS011;15046;50.930;13.334;2022-10-31T09:40:29;11.75;;;4.05;;
27632;SDS011;15046;50.930;13.334;2022-10-31T09:51:05;9.90;;;3.80;;
27632;SDS011;15046;50.930;13.334;2022-10-31T09:56:14;10.13;;;3.55;;
27632;SDS011;15046;50.930;13.334;2022-10-31T09:58:44;7.28;;;3.58;;
27632;SDS011;15046;50.930;13.334;2022-10-31T10:03:59;7.65;;;3.55;;
27632;SDS011;15046;50.930;13.334;2022-10-31T10:06:32;7.35;;;3.58;;
27632;SDS011;15046;50.930;13.334;2022-10-31T10:09:01;6.97;;;3.42;;
27632;SDS011;15046;50.930;13.334;2022-10-31T10:11:52;8.05;;;3.58;;
27632;SDS011;15046;50.930;13.334;2022-10-31T10:14:32;8.15;;;3.35;;
27632;SDS011;15046;50.930;13.334;2022-10-31T10:25:58;7.95;;;3.88;;
27632;SDS011;15046;50.930;13.334;2022-10-31T10:28:35;6.80;;;3.40;;
27632;SDS011;15046;50.930;13.334;2022-10-31T10:31:07;7.05;;;3.28;;
27632;SDS011;15046;50.930;13.334;2022-10-31T10:33:35;7.97;;;3.47;;
27632;SDS011;15046;50.930;13.334;2022-10-31T10:36:29;10.55;;;3.90;;
27632;SDS011;15046;50.930;13.334;2022-10-31T10:39:08;7.85;;;3.90;;
27632;SDS011;15046;50.930;13.334;2022-10-31T10:41:44;10.43;;;4.35;;
27632;SDS011;15046;50.930;13.334;2022-10-31T10:44:12;9.20;;;3.50;;
27632;SDS011;15046;50.930;13.334;2022-10-31T10:46:42;8.05;;;4.28;;
27632;SDS011;15046;50.930;13.334;2022-10-31T10:49:51;10.48;;;4.55;;
27632;SDS011;15046;50.930;13.334;2022-10-31T11:00:17;8.93;;;4.18;;
27632;SDS011;15046;50.930;13.334;2022-10-31T11:02:46;8.45;;;3.70;;
27632;SDS011;15046;50.930;13.334;2022-10-31T11:05:23;9.10;;;3.72;;
27632;SDS011;15046;50.930;13.334;2022-10-31T11:08:10;14.77;;;4.60;;
27632;SDS011;15046;50.930;13.334;2022-10-31T11:10:36;8.70;;;4.10;;
27632;SDS011;15046;50.930;13.334;2022-10-31T11:13:15;8.60;;;3.80;;
27632;SDS011;15046;50.930;13.334;2022-10-31T11:16:07;8.13;;;4.20;;
27632;SDS011;15046;50.930;13.334;2022-10-31T11:18:42;8.32;;;3.30;;
27632;SDS011;15046;50.930;13.334;2022-10-31T11:21:23;7.75;;;3.83;;
27632;SDS011;15046;50.930;13.334;2022-10-31T11:24:02;5.03;;;3.13;;
27632;SDS011;15046;50.930;13.334;2022-10-31T11:26:34;6.00;;;3.28;;
27632;SDS011;15046;50.930;13.334;2022-10-31T11:29:05;8.02;;;3.72;;
27632;SDS011;15046;50.930;13.334;2022-10-31T11:31:46;10.07;;;3.33;;
27632;SDS011;15046;50.930;13.334;2022-10-31T11:34:22;9.27;;;2.67;;
27632;SDS011;15046;50.930;13.334;2022-10-31T11:36:53;7.85;;;3.72;;
27632;SDS011;15046;50.930;13.334;2022-10-31T11:39:23;7.70;;;3.00;;
27632;SDS011;15046;50.930;13.334;2022-10-31T11:41:50;9.77;;;3.95;;
27632;SDS011;15046;50.930;13.334;2022-10-31T11:44:18;6.15;;;3.25;;
27632;SDS011;15046;50.930;13.334;2022-10-31T11:46:51;7.88;;;3.53;;
27632;SDS011;15046;50.930;13.334;2022-10-31T11:49:31;8.32;;;3.17;;
27632;SDS011;15046;50.930;13.334;2022-10-31T11:52:16;9.30;;;3.38;;
27632;SDS011;15046;50.930;13.334;2022-10-31T11:54:55;9.52;;;3.67;;
27632;SDS011;15046;50.930;13.334;2022-10-31T11:57:27;6.38;;;3.10;;
27632;SDS011;15046;50.930;13.334;2022-10-31T12:00:02;10.52;;;3.65;;
27632;SDS011;15046;50.930;13.334;2022-10-31T12:02:29;9.38;;;4.15;;
27632;SDS011;15046;50.930;13.334;2022-10-31T12:04:58;4.60;;;2.60;;
27632;SDS011;15046;50.930;13.334;2022-10-31T12:07:33;4.07;;;2.22;;
27632;SDS011;15046;50.930;13.334;2022-10-31T12:09:59;9.15;;;2.88;;
27632;SDS011;15046;50.930;13.334;2022-10-31T12:12:32;9.63;;;2.85;;
27632;SDS011;15046;50.930;13.334;2022-10-31T12:20:44;6.57;;;2.63;;
27632;SDS011;15046;50.930;13.334;2022-10-31T12:23:25;7.38;;;2.90;;
27632;SDS011;15046;50.930;13.334;2022-10-31T12:31:33;5.47;;;2.45;;
27632;SDS011;15046;50.930;13.334;2022-10-31T12:37:11;6.95;;;3.00;;
27632;SDS011;15046;50.930;13.334;2022-10-31T12:53:52;8.20;;;3.08;;
27632;SDS011;15046;50.930;13.334;2022-10-31T12:56:30;8.43;;;2.38;;
27632;SDS011;15046;50.930;13.334;2022-10-31T12:59:21;6.95;;;2.53;;
27632;SDS011;15046;50.930;13.334;2022-10-31T13:02:36;6.88;;;2.47;;
27632;SDS011;15046;50.930;13.334;2022-10-31T13:04:51;8.25;;;2.65;;
27632;SDS011;15046;50.930;13.334;2022-10-31T13:07:43;4.88;;;2.78;;
27632;SDS011;15046;50.930;13.334;2022-10-31T13:13:13;9.15;;;3.28;;
27632;SDS011;15046;50.930;13.334;2022-10-31T13:15:54;6.65;;;3.40;;
27632;SDS011;15046;50.930;13.334;2022-10-31T13:18:43;12.18;;;3.63;;
27632;SDS011;15046;50.930;13.334;2022-10-31T13:21:21;8.45;;;3.97;;
27632;SDS011;15046;50.930;13.334;2022-10-31T13:23:50;10.70;;;3.97;;
27632;SDS011;15046;50.930;13.334;2022-10-31T13:26:21;8.75;;;3.55;;
27632;SDS011;15046;50.930;13.334;2022-10-31T13:31:39;7.55;;;3.97;;
27632;SDS011;15046;50.930;13.334;2022-10-31T13:36:45;11.77;;;4.30;;
27632;SDS011;15046;50.930;13.334;2022-10-31T13:41:54;7.90;;;3.97;;
27632;SDS011;15046;50.930;13.334;2022-10-31T13:44:41;9.57;;;3.95;;
27632;SDS011;15046;50.930;13.334;2022-10-31T13:47:24;8.15;;;4.07;;
27632;SDS011;15046;50.930;13.334;2022-10-31T13:50:18;8.23;;;3.80;;
27632;SDS011;15046;50.930;13.334;2022-10-31T13:52:49;13.38;;;5.05;;
27632;SDS011;15046;50.930;13.334;2022-10-31T13:58:19;6.85;;;3.72;;
27632;SDS011;15046;50.930;13.334;2022-10-31T14:01:02;7.60;;;4.53;;
27632;SDS011;15046;50.930;13.334;2022-10-31T14:03:33;10.77;;;4.57;;
27632;SDS011;15046;50.930;13.334;2022-10-31T14:06:05;9.45;;;4.65;;
27632;SDS011;15046;50.930;13.334;2022-10-31T14:08:34;12.07;;;4.60;;
27632;SDS011;15046;50.930;13.334;2022-10-31T14:11:02;9.00;;;4.80;;
27632;SDS011;15046;50.930;13.334;2022-10-31T14:13:31;7.15;;;4.45;;
27632;SDS011;15046;50.930;13.334;2022-10-31T14:16:03;8.90;;;3.90;;
27632;SDS011;15046;50.930;13.334;2022-10-31T14:18:32;13.70;;;5.20;;
27632;SDS011;15046;50.930;13.334;2022-10-31T14:21:25;8.02;;;3.75;;
27632;SDS011;15046;50.930;13.334;2022-10-31T14:23:57;6.80;;;3.83;;
27632;SDS011;15046;50.930;13.334;2022-10-31T14:28:58;8.35;;;4.43;;
27632;SDS011;15046;50.930;13.334;2022-10-31T14:39:56;8.50;;;4.25;;
27632;SDS011;15046;50.930;13.334;2022-10-31T14:42:49;9.93;;;4.85;;
27632;SDS011;15046;50.930;13.334;2022-10-31T14:45:49;11.05;;;4.80;;
27632;SDS011;15046;50.930;13.334;2022-10-31T14:48:33;8.50;;;4.32;;
27632;SDS011;15046;50.930;13.334;2022-10-31T14:51:08;9.43;;;4.60;;
27632;SDS011;15046;50.930;13.334;2022-10-31T14:56:27;10.10;;;5.13;;
27632;SDS011;15046;50.930;13.334;2022-10-31T14:59:00;15.18;;;5.40;;
27632;SDS011;15046;50.930;13.334;2022-10-31T15:01:33;11.70;;;5.15;;
27632;SDS011;15046;50.930;13.334;2022-10-31T15:07:11;11.40;;;4.93;;
27632;SDS011;15046;50.930;13.334;2022-10-31T15:09:41;12.02;;;5.43;;
27632;SDS011;15046;50.930;13.334;2022-10-31T15:12:41;8.25;;;4.97;;
27632;SDS011;15046;50.930;13.334;2022-10-31T15:17:59;9.48;;;4.70;;
27632;SDS011;15046;50.930;13.334;2022-10-31T15:20:29;12.13;;;4.53;;
27632;SDS011;15046;50.930;13.334;2022-10-31T15:22:59;10.88;;;5.40;;
27632;SDS011;15046;50.930;13.334;2022-10-31T15:25:27;6.88;;;4.40;;
27632;SDS011;15046;50.930;13.334;2022-10-31T15:27:57;9.98;;;5.65;;
27632;SDS011;15046;50.930;13.334;2022-10-31T15:30:24;19.30;;;5.93;;
27632;SDS011;15046;50.930;13.334;2022-10-31T15:32:51;10.35;;;4.53;;
27632;SDS011;15046;50.930;13.334;2022-10-31T15:35:28;14.23;;;5.68;;
27632;SDS011;15046;50.930;13.334;2022-10-31T15:38:00;10.85;;;5.10;;
27632;SDS011;15046;50.930;13.334;2022-10-31T15:40:28;13.15;;;4.78;;
27632;SDS011;15046;50.930;13.334;2022-10-31T15:43:01;8.98;;;4.68;;
27632;SDS011;15046;50.930;13.334;2022-10-31T15:45:29;12.23;;;5.30;;
27632;SDS011;15046;50.930;13.334;2022-10-31T15:48:00;10.27;;;5.40;;
27632;SDS011;15046;50.930;13.334;2022-10-31T15:50:37;12.90;;;5.10;;
27632;SDS011;15046;50.930;13.334;2022-10-31T15:53:06;16.45;;;5.22;;
27632;SDS011;15046;50.930;13.334;2022-10-31T15:55:57;10.77;;;5.30;;
27632;SDS011;15046;50.930;13.334;2022-10-31T15:58:45;10.50;;;4.50;;
27632;SDS011;15046;50.930;13.334;2022-10-31T16:01:23;12.90;;;5.30;;
27632;SDS011;15046;50.930;13.334;2022-10-31T16:06:36;11.30;;;5.55;;
27632;SDS011;15046;50.930;13.334;2022-10-31T16:09:18;9.43;;;4.78;;
27632;SDS011;15046;50.930;13.334;2022-10-31T16:11:47;7.93;;;4.82;;
27632;SDS011;15046;50.930;13.334;2022-10-31T16:14:23;13.32;;;5.78;;
27632;SDS011;15046;50.930;13.334;2022-10-31T16:16:55;10.07;;;5.15;;
27632;SDS011;15046;50.930;13.334;2022-10-31T16:19:36;12.23;;;5.22;;
27632;SDS011;15046;50.930;13.334;2022-10-31T16:22:18;10.25;;;5.18;;
27632;SDS011;15046;50.930;13.334;2022-10-31T16:27:31;8.20;;;4.85;;
27632;SDS011;15046;50.930;13.334;2022-10-31T16:29:59;11.95;;;5.10;;
27632;SDS011;15046;50.930;13.334;2022-10-31T16:32:36;11.40;;;4.88;;
27632;SDS011;15046;50.930;13.334;2022-10-31T16:38:07;9.88;;;5.60;;
27632;SDS011;15046;50.930;13.334;2022-10-31T16:40:34;13.13;;;6.63;;
27632;SDS011;15046;50.930;13.334;2022-10-31T16:43:02;13.02;;;5.75;;
27632;SDS011;15046;50.930;13.334;2022-10-31T16:45:31;12.88;;;7.03;;
27632;SDS011;15046;50.930;13.334;2022-10-31T16:48:05;13.30;;;7.00;;
27632;SDS011;15046;50.930;13.334;2022-10-31T16:50:39;12.82;;;6.57;;
27632;SDS011;15046;50.930;13.334;2022-10-31T16:53:05;17.55;;;7.10;;
27632;SDS011;15046;50.930;13.334;2022-10-31T16:55:34;16.60;;;7.05;;
27632;SDS011;15046;50.930;13.334;2022-10-31T16:58:07;14.20;;;7.07;;
27632;SDS011;15046;50.930;13.334;2022-10-31T17:00:38;13.13;;;7.13;;
27632;SDS011;15046;50.930;13.334;2022-10-31T17:08:13;14.85;;;7.20;;
27632;SDS011;15046;50.930;13.334;2022-10-31T17:10:40;11.15;;;6.65;;
27632;SDS011;15046;50.930;13.334;2022-10-31T17:13:10;9.93;;;6.45;;